sensor_id;sensor_type;location;lat;lon;timestamp;P1;durP1;ratioP1;P2;durP2;ratioP2
50291;SDS011;36190;54.980;73.388;2023-09-07T00:02:00;9.45;;;4.95;;
50291;SDS011;36190;54.980;73.388;2023-09-07T00:04:28;10.85;;;5.03;;
50291;SDS011;36190;54.980;73.388;2023-09-07T00:06:56;8.15;;;4.25;;
50291;SDS011;36190;54.980;73.388;2023-09-07T00:09:26;9.23;;;4.70;;
50291;SDS011;36190;54.980;73.388;2023-09-07T00:11:54;9.20;;;4.50;;
50291;SDS011;36190;54.980;73.388;2023-09-07T00:14:21;10.93;;;5.00;;
50291;SDS011;36190;54.980;73.388;2023-09-07T00:16:49;12.05;;;4.93;;
50291;SDS011;36190;54.980;73.388;2023-09-07T00:19:20;10.00;;;4.90;;
50291;SDS011;36190;54.980;73.388;2023-09-07T00:21:47;9.32;;;4.78;;
50291;SDS011;36190;54.980;73.388;2023-09-07T00:24:17;9.68;;;4.82;;
50291;SDS011;36190;54.980;73.388;2023-09-07T00:26:46;9.13;;;4.57;;
50291;SDS011;36190;54.980;73.388;2023-09-07T00:29:13;11.73;;;4.95;;
50291;SDS011;36190;54.980;73.388;2023-09-07T00:31:41;11.80;;;5.68;;
50291;SDS011;36190;54.980;73.388;2023-09-07T00:34:08;12.52;;;4.50;;
50291;SDS011;36190;54.980;73.388;2023-09-07T00:36:36;10.73;;;5.07;;
50291;SDS011;36190;54.980;73.388;2023-09-07T00:39:03;11.75;;;5.13;;
50291;SDS011;36190;54.980;73.388;2023-09-07T00:41:31;12.38;;;4.95;;
50291;SDS011;36190;54.980;73.388;2023-09-07T00:44:00;10.93;;;5.25;;
50291;SDS011;36190;54.980;73.388;2023-09-07T00:46:27;10.60;;;4.65;;
50291;SDS011;36190;54.980;73.388;2023-09-07T00:48:55;10.52;;;4.72;;
50291;SDS011;36190;54.980;73.388;2023-09-07T00:51:23;11.02;;;5.00;;
50291;SDS011;36190;54.980;73.388;2023-09-07T00:53:51;9.35;;;4.80;;
50291;SDS011;36190;54.980;73.388;2023-09-07T00:56:19;10.18;;;4.80;;
50291;SDS011;36190;54.980;73.388;2023-09-07T00:58:46;9.55;;;4.55;;
50291;SDS011;36190;54.980;73.388;2023-09-07T01:01:15;10.30;;;4.78;;
50291;SDS011;36190;54.980;73.388;2023-09-07T01:03:43;9.68;;;4.45;;
50291;SDS011;36190;54.980;73.388;2023-09-07T01:06:12;9.20;;;4.82;;
50291;SDS011;36190;54.980;73.388;2023-09-07T01:08:54;10.30;;;4.68;;
50291;SDS011;36190;54.980;73.388;2023-09-07T01:11:24;10.82;;;4.47;;
50291;SDS011;36190;54.980;73.388;2023-09-07T01:13:52;8.82;;;4.30;;
50291;SDS011;36190;54.980;73.388;2023-09-07T01:16:22;9.20;;;4.60;;
50291;SDS011;36190;54.980;73.388;2023-09-07T01:18:50;8.80;;;4.47;;
50291;SDS011;36190;54.980;73.388;2023-09-07T01:21:18;11.02;;;4.68;;
50291;SDS011;36190;54.980;73.388;2023-09-07T01:23:47;10.35;;;4.63;;
50291;SDS011;36190;54.980;73.388;2023-09-07T01:26:15;11.02;;;4.70;;
50291;SDS011;36190;54.980;73.388;2023-09-07T01:28:43;9.82;;;4.20;;
50291;SDS011;36190;54.980;73.388;2023-09-07T01:31:10;9.45;;;4.15;;
50291;SDS011;36190;54.980;73.388;2023-09-07T01:33:38;9.93;;;4.55;;
50291;SDS011;36190;54.980;73.388;2023-09-07T01:36:06;11.00;;;4.88;;
50291;SDS011;36190;54.980;73.388;2023-09-07T01:38:33;10.23;;;4.75;;
50291;SDS011;36190;54.980;73.388;2023-09-07T01:41:02;9.15;;;4.50;;
50291;SDS011;36190;54.980;73.388;2023-09-07T01:43:30;12.07;;;4.93;;
50291;SDS011;36190;54.980;73.388;2023-09-07T01:45:57;9.90;;;4.50;;
50291;SDS011;36190;54.980;73.388;2023-09-07T01:48:24;9.48;;;4.32;;
50291;SDS011;36190;54.980;73.388;2023-09-07T01:50:52;12.18;;;4.35;;
50291;SDS011;36190;54.980;73.388;2023-09-07T01:53:20;11.18;;;4.45;;
50291;SDS011;36190;54.980;73.388;2023-09-07T01:55:47;9.60;;;4.20;;
50291;SDS011;36190;54.980;73.388;2023-09-07T01:58:16;9.63;;;4.30;;
50291;SDS011;36190;54.980;73.388;2023-09-07T02:00:43;9.80;;;4.35;;
50291;SDS011;36190;54.980;73.388;2023-09-07T02:03:11;9.75;;;4.50;;
50291;SDS011;36190;54.980;73.388;2023-09-07T02:05:38;11.23;;;4.57;;
50291;SDS011;36190;54.980;73.388;2023-09-07T02:08:06;9.75;;;4.15;;
50291;SDS011;36190;54.980;73.388;2023-09-07T02:10:33;9.88;;;4.70;;
50291;SDS011;36190;54.980;73.388;2023-09-07T02:13:01;8.52;;;3.80;;
50291;SDS011;36190;54.980;73.388;2023-09-07T02:15:30;12.40;;;4.47;;
50291;SDS011;36190;54.980;73.388;2023-09-07T02:17:58;10.85;;;3.78;;
50291;SDS011;36190;54.980;73.388;2023-09-07T02:20:25;10.35;;;3.95;;
50291;SDS011;36190;54.980;73.388;2023-09-07T02:22:53;12.25;;;4.10;;
50291;SDS011;36190;54.980;73.388;2023-09-07T02:25:20;12.80;;;4.15;;
50291;SDS011;36190;54.980;73.388;2023-09-07T02:27:48;8.65;;;3.70;;
50291;SDS011;36190;54.980;73.388;2023-09-07T02:30:15;9.60;;;4.15;;
50291;SDS011;36190;54.980;73.388;2023-09-07T02:32:44;9.23;;;4.13;;
50291;SDS011;36190;54.980;73.388;2023-09-07T02:35:11;10.80;;;3.90;;
50291;SDS011;36190;54.980;73.388;2023-09-07T02:37:39;9.38;;;4.20;;
50291;SDS011;36190;54.980;73.388;2023-09-07T02:40:07;13.73;;;4.68;;
50291;SDS011;36190;54.980;73.388;2023-09-07T02:42:35;9.73;;;4.30;;
50291;SDS011;36190;54.980;73.388;2023-09-07T02:45:02;11.88;;;4.50;;
50291;SDS011;36190;54.980;73.388;2023-09-07T02:47:30;10.10;;;4.30;;
50291;SDS011;36190;54.980;73.388;2023-09-07T02:49:59;10.35;;;4.28;;
50291;SDS011;36190;54.980;73.388;2023-09-07T02:52:27;10.65;;;4.65;;
50291;SDS011;36190;54.980;73.388;2023-09-07T02:54:54;11.95;;;4.50;;
50291;SDS011;36190;54.980;73.388;2023-09-07T02:57:22;10.80;;;4.72;;
50291;SDS011;36190;54.980;73.388;2023-09-07T02:59:49;12.25;;;4.28;;
50291;SDS011;36190;54.980;73.388;2023-09-07T03:02:18;10.88;;;4.30;;
50291;SDS011;36190;54.980;73.388;2023-09-07T03:04:46;12.10;;;4.63;;
50291;SDS011;36190;54.980;73.388;2023-09-07T03:07:15;14.27;;;4.78;;
50291;SDS011;36190;54.980;73.388;2023-09-07T03:09:42;12.43;;;4.45;;
50291;SDS011;36190;54.980;73.388;2023-09-07T03:12:10;16.38;;;5.15;;
50291;SDS011;36190;54.980;73.388;2023-09-07T03:14:37;12.07;;;4.80;;
50291;SDS011;36190;54.980;73.388;2023-09-07T03:17:04;15.70;;;5.05;;
50291;SDS011;36190;54.980;73.388;2023-09-07T03:19:32;14.70;;;5.40;;
50291;SDS011;36190;54.980;73.388;2023-09-07T03:21:59;13.20;;;4.88;;
50291;SDS011;36190;54.980;73.388;2023-09-07T03:24:30;11.88;;;4.93;;
50291;SDS011;36190;54.980;73.388;2023-09-07T03:26:57;11.38;;;4.82;;
50291;SDS011;36190;54.980;73.388;2023-09-07T03:29:25;12.82;;;5.15;;
50291;SDS011;36190;54.980;73.388;2023-09-07T03:31:53;11.63;;;5.63;;
50291;SDS011;36190;54.980;73.388;2023-09-07T03:34:20;14.35;;;5.68;;
50291;SDS011;36190;54.980;73.388;2023-09-07T03:36:48;11.85;;;5.20;;
50291;SDS011;36190;54.980;73.388;2023-09-07T03:39:15;14.77;;;5.75;;
50291;SDS011;36190;54.980;73.388;2023-09-07T03:41:45;16.98;;;5.95;;
50291;SDS011;36190;54.980;73.388;2023-09-07T03:44:12;16.42;;;6.20;;
50291;SDS011;36190;54.980;73.388;2023-09-07T03:46:40;16.30;;;6.50;;
50291;SDS011;36190;54.980;73.388;2023-09-07T03:49:08;14.52;;;5.97;;
50291;SDS011;36190;54.980;73.388;2023-09-07T03:51:35;20.08;;;5.88;;
50291;SDS011;36190;54.980;73.388;2023-09-07T03:54:03;19.17;;;6.45;;
50291;SDS011;36190;54.980;73.388;2023-09-07T03:56:30;16.13;;;6.05;;
50291;SDS011;36190;54.980;73.388;2023-09-07T03:58:59;16.35;;;6.00;;
50291;SDS011;36190;54.980;73.388;2023-09-07T04:01:26;20.40;;;5.78;;
50291;SDS011;36190;54.980;73.388;2023-09-07T04:03:54;14.65;;;5.63;;
50291;SDS011;36190;54.980;73.388;2023-09-07T04:06:21;17.67;;;5.63;;
50291;SDS011;36190;54.980;73.388;2023-09-07T04:08:49;15.50;;;6.22;;
50291;SDS011;36190;54.980;73.388;2023-09-07T04:11:16;16.42;;;5.38;;
50291;SDS011;36190;54.980;73.388;2023-09-07T04:13:46;17.70;;;5.60;;
50291;SDS011;36190;54.980;73.388;2023-09-07T04:16:15;19.17;;;6.63;;
50291;SDS011;36190;54.980;73.388;2023-09-07T04:18:43;21.05;;;6.18;;
50291;SDS011;36190;54.980;73.388;2023-09-07T04:21:11;18.58;;;6.00;;
50291;SDS011;36190;54.980;73.388;2023-09-07T04:23:38;19.95;;;6.05;;
50291;SDS011;36190;54.980;73.388;2023-09-07T04:26:06;18.80;;;6.45;;
50291;SDS011;36190;54.980;73.388;2023-09-07T04:28:34;14.25;;;5.80;;
50291;SDS011;36190;54.980;73.388;2023-09-07T04:31:02;28.13;;;7.28;;
50291;SDS011;36190;54.980;73.388;2023-09-07T04:33:31;16.80;;;6.13;;
50291;SDS011;36190;54.980;73.388;2023-09-07T04:36:06;18.30;;;6.28;;
50291;SDS011;36190;54.980;73.388;2023-09-07T04:38:35;19.00;;;7.10;;
50291;SDS011;36190;54.980;73.388;2023-09-07T04:41:06;15.57;;;6.53;;
50291;SDS011;36190;54.980;73.388;2023-09-07T04:43:34;15.70;;;6.00;;
50291;SDS011;36190;54.980;73.388;2023-09-07T04:46:02;12.95;;;5.63;;
50291;SDS011;36190;54.980;73.388;2023-09-07T04:48:30;16.58;;;5.90;;
50291;SDS011;36190;54.980;73.388;2023-09-07T04:50:59;15.93;;;5.80;;
50291;SDS011;36190;54.980;73.388;2023-09-07T04:53:27;20.75;;;6.40;;
50291;SDS011;36190;54.980;73.388;2023-09-07T04:55:56;16.77;;;6.50;;
50291;SDS011;36190;54.980;73.388;2023-09-07T04:58:23;16.63;;;6.38;;
50291;SDS011;36190;54.980;73.388;2023-09-07T05:00:51;16.65;;;6.70;;
50291;SDS011;36190;54.980;73.388;2023-09-07T05:03:19;18.15;;;6.35;;
50291;SDS011;36190;54.980;73.388;2023-09-07T05:05:52;17.98;;;6.85;;
50291;SDS011;36190;54.980;73.388;2023-09-07T05:08:21;12.90;;;6.40;;
50291;SDS011;36190;54.980;73.388;2023-09-07T05:10:54;16.27;;;6.45;;
50291;SDS011;36190;54.980;73.388;2023-09-07T05:13:22;17.85;;;6.95;;
50291;SDS011;36190;54.980;73.388;2023-09-07T05:15:50;15.05;;;6.85;;
50291;SDS011;36190;54.980;73.388;2023-09-07T05:18:19;18.08;;;6.28;;
50291;SDS011;36190;54.980;73.388;2023-09-07T05:20:46;16.75;;;6.03;;
50291;SDS011;36190;54.980;73.388;2023-09-07T05:23:18;18.95;;;6.50;;
50291;SDS011;36190;54.980;73.388;2023-09-07T05:25:46;16.77;;;6.43;;
50291;SDS011;36190;54.980;73.388;2023-09-07T05:28:15;15.55;;;6.75;;
50291;SDS011;36190;54.980;73.388;2023-09-07T05:30:43;20.23;;;7.85;;
50291;SDS011;36190;54.980;73.388;2023-09-07T05:33:11;21.77;;;7.57;;
50291;SDS011;36190;54.980;73.388;2023-09-07T05:35:39;23.00;;;8.23;;
50291;SDS011;36190;54.980;73.388;2023-09-07T05:38:07;24.33;;;7.97;;
50291;SDS011;36190;54.980;73.388;2023-09-07T05:40:37;25.13;;;8.68;;
50291;SDS011;36190;54.980;73.388;2023-09-07T05:43:06;29.90;;;9.13;;
50291;SDS011;36190;54.980;73.388;2023-09-07T05:45:34;27.98;;;9.60;;
50291;SDS011;36190;54.980;73.388;2023-09-07T05:48:03;30.42;;;9.65;;
50291;SDS011;36190;54.980;73.388;2023-09-07T05:50:33;27.20;;;9.68;;
50291;SDS011;36190;54.980;73.388;2023-09-07T05:53:01;33.67;;;10.27;;
50291;SDS011;36190;54.980;73.388;2023-09-07T05:55:29;32.72;;;11.13;;
50291;SDS011;36190;54.980;73.388;2023-09-07T05:57:58;32.47;;;11.10;;
50291;SDS011;36190;54.980;73.388;2023-09-07T06:00:26;42.58;;;11.65;;
50291;SDS011;36190;54.980;73.388;2023-09-07T06:02:53;29.33;;;9.32;;
50291;SDS011;36190;54.980;73.388;2023-09-07T06:05:21;23.02;;;7.82;;
50291;SDS011;36190;54.980;73.388;2023-09-07T06:07:48;22.65;;;7.85;;
50291;SDS011;36190;54.980;73.388;2023-09-07T06:10:16;27.25;;;8.18;;
50291;SDS011;36190;54.980;73.388;2023-09-07T06:12:44;22.52;;;7.20;;
50291;SDS011;36190;54.980;73.388;2023-09-07T06:15:13;22.33;;;7.93;;
50291;SDS011;36190;54.980;73.388;2023-09-07T06:17:41;21.60;;;7.00;;
50291;SDS011;36190;54.980;73.388;2023-09-07T06:20:11;20.10;;;6.65;;
50291;SDS011;36190;54.980;73.388;2023-09-07T06:22:38;17.92;;;5.90;;
50291;SDS011;36190;54.980;73.388;2023-09-07T06:25:05;22.50;;;6.22;;
50291;SDS011;36190;54.980;73.388;2023-09-07T06:27:32;21.10;;;6.57;;
50291;SDS011;36190;54.980;73.388;2023-09-07T06:30:00;22.80;;;6.95;;
50291;SDS011;36190;54.980;73.388;2023-09-07T06:32:29;22.65;;;6.10;;
50291;SDS011;36190;54.980;73.388;2023-09-07T06:34:57;24.05;;;6.97;;
50291;SDS011;36190;54.980;73.388;2023-09-07T06:37:25;25.02;;;7.05;;
50291;SDS011;36190;54.980;73.388;2023-09-07T06:39:53;18.45;;;6.30;;
50291;SDS011;36190;54.980;73.388;2023-09-07T06:42:21;19.70;;;6.97;;
50291;SDS011;36190;54.980;73.388;2023-09-07T06:44:48;28.40;;;7.35;;
50291;SDS011;36190;54.980;73.388;2023-09-07T06:47:17;25.35;;;6.60;;
50291;SDS011;36190;54.980;73.388;2023-09-07T06:49:45;25.23;;;6.68;;
50291;SDS011;36190;54.980;73.388;2023-09-07T06:52:14;21.95;;;7.30;;
50291;SDS011;36190;54.980;73.388;2023-09-07T06:54:41;23.23;;;6.78;;
50291;SDS011;36190;54.980;73.388;2023-09-07T06:57:09;25.92;;;7.68;;
50291;SDS011;36190;54.980;73.388;2023-09-07T06:59:36;23.33;;;6.82;;
50291;SDS011;36190;54.980;73.388;2023-09-07T07:02:04;21.05;;;6.25;;
50291;SDS011;36190;54.980;73.388;2023-09-07T07:04:32;25.95;;;6.50;;
50291;SDS011;36190;54.980;73.388;2023-09-07T07:07:02;17.50;;;5.90;;
50291;SDS011;36190;54.980;73.388;2023-09-07T07:09:31;12.82;;;3.97;;
50291;SDS011;36190;54.980;73.388;2023-09-07T07:11:59;10.75;;;4.32;;
50291;SDS011;36190;54.980;73.388;2023-09-07T07:14:27;14.65;;;4.40;;
50291;SDS011;36190;54.980;73.388;2023-09-07T07:16:54;11.73;;;4.13;;
50291;SDS011;36190;54.980;73.388;2023-09-07T07:19:22;11.32;;;4.38;;
50291;SDS011;36190;54.980;73.388;2023-09-07T07:21:49;18.60;;;5.35;;
50291;SDS011;36190;54.980;73.388;2023-09-07T07:24:18;12.48;;;4.60;;
50291;SDS011;36190;54.980;73.388;2023-09-07T07:26:46;14.40;;;5.20;;
50291;SDS011;36190;54.980;73.388;2023-09-07T07:29:13;16.15;;;5.22;;
50291;SDS011;36190;54.980;73.388;2023-09-07T07:31:41;13.98;;;4.85;;
50291;SDS011;36190;54.980;73.388;2023-09-07T07:34:08;11.27;;;4.18;;
50291;SDS011;36190;54.980;73.388;2023-09-07T07:36:36;13.30;;;4.25;;
50291;SDS011;36190;54.980;73.388;2023-09-07T07:39:04;14.60;;;4.60;;
50291;SDS011;36190;54.980;73.388;2023-09-07T07:41:34;11.02;;;4.45;;
50291;SDS011;36190;54.980;73.388;2023-09-07T07:44:03;12.43;;;4.25;;
50291;SDS011;36190;54.980;73.388;2023-09-07T07:46:31;10.77;;;4.20;;
50291;SDS011;36190;54.980;73.388;2023-09-07T07:48:58;20.60;;;5.80;;
50291;SDS011;36190;54.980;73.388;2023-09-07T07:51:26;18.33;;;5.38;;
50291;SDS011;36190;54.980;73.388;2023-09-07T07:53:53;10.50;;;4.00;;
50291;SDS011;36190;54.980;73.388;2023-09-07T07:56:23;13.43;;;4.60;;
50291;SDS011;36190;54.980;73.388;2023-09-07T07:58:52;10.20;;;4.13;;
50291;SDS011;36190;54.980;73.388;2023-09-07T08:01:20;9.75;;;3.90;;
50291;SDS011;36190;54.980;73.388;2023-09-07T08:03:48;10.75;;;3.80;;
50291;SDS011;36190;54.980;73.388;2023-09-07T08:06:17;12.73;;;4.13;;
50291;SDS011;36190;54.980;73.388;2023-09-07T08:08:44;10.93;;;3.90;;
50291;SDS011;36190;54.980;73.388;2023-09-07T08:11:11;12.88;;;4.10;;
50291;SDS011;36190;54.980;73.388;2023-09-07T08:13:46;9.20;;;3.40;;
50291;SDS011;36190;54.980;73.388;2023-09-07T08:16:15;12.07;;;3.55;;
50291;SDS011;36190;54.980;73.388;2023-09-07T08:18:43;9.98;;;3.40;;
50291;SDS011;36190;54.980;73.388;2023-09-07T08:21:10;11.15;;;3.50;;
50291;SDS011;36190;54.980;73.388;2023-09-07T08:23:38;10.27;;;3.47;;
50291;SDS011;36190;54.980;73.388;2023-09-07T08:26:06;8.55;;;3.20;;
50291;SDS011;36190;54.980;73.388;2023-09-07T08:28:34;10.27;;;3.45;;
50291;SDS011;36190;54.980;73.388;2023-09-07T08:31:02;11.90;;;4.13;;
50291;SDS011;36190;54.980;73.388;2023-09-07T08:33:31;17.05;;;6.38;;
50291;SDS011;36190;54.980;73.388;2023-09-07T08:36:05;10.82;;;3.30;;
50291;SDS011;36190;54.980;73.388;2023-09-07T08:38:34;13.10;;;3.83;;
50291;SDS011;36190;54.980;73.388;2023-09-07T08:41:02;12.82;;;3.67;;
50291;SDS011;36190;54.980;73.388;2023-09-07T08:43:32;6.63;;;2.90;;
50291;SDS011;36190;54.980;73.388;2023-09-07T08:46:05;9.88;;;3.72;;
50291;SDS011;36190;54.980;73.388;2023-09-07T08:48:42;9.40;;;3.45;;
50291;SDS011;36190;54.980;73.388;2023-09-07T08:51:12;7.93;;;3.00;;
50291;SDS011;36190;54.980;73.388;2023-09-07T08:53:40;8.35;;;3.28;;
50291;SDS011;36190;54.980;73.388;2023-09-07T08:56:11;6.82;;;3.10;;
50291;SDS011;36190;54.980;73.388;2023-09-07T08:58:39;6.35;;;3.17;;
50291;SDS011;36190;54.980;73.388;2023-09-07T09:01:07;7.55;;;3.03;;
50291;SDS011;36190;54.980;73.388;2023-09-07T09:03:35;7.78;;;3.40;;
50291;SDS011;36190;54.980;73.388;2023-09-07T09:06:04;15.65;;;4.97;;
50291;SDS011;36190;54.980;73.388;2023-09-07T09:08:41;9.32;;;3.28;;
50291;SDS011;36190;54.980;73.388;2023-09-07T09:11:09;10.35;;;3.58;;
50291;SDS011;36190;54.980;73.388;2023-09-07T09:13:37;7.25;;;3.25;;
50291;SDS011;36190;54.980;73.388;2023-09-07T09:16:06;8.60;;;3.28;;
50291;SDS011;36190;54.980;73.388;2023-09-07T09:18:34;9.68;;;3.53;;
50291;SDS011;36190;54.980;73.388;2023-09-07T09:21:01;9.75;;;4.25;;
50291;SDS011;36190;54.980;73.388;2023-09-07T09:23:32;9.63;;;3.25;;
50291;SDS011;36190;54.980;73.388;2023-09-07T09:25:59;7.38;;;3.25;;
50291;SDS011;36190;54.980;73.388;2023-09-07T09:28:30;7.38;;;3.03;;
50291;SDS011;36190;54.980;73.388;2023-09-07T09:30:58;11.27;;;3.65;;
50291;SDS011;36190;54.980;73.388;2023-09-07T09:33:26;8.88;;;3.17;;
50291;SDS011;36190;54.980;73.388;2023-09-07T09:35:54;9.10;;;3.70;;
50291;SDS011;36190;54.980;73.388;2023-09-07T09:38:22;7.35;;;3.35;;
50291;SDS011;36190;54.980;73.388;2023-09-07T09:40:52;10.43;;;3.55;;
50291;SDS011;36190;54.980;73.388;2023-09-07T09:43:19;11.40;;;3.70;;
50291;SDS011;36190;54.980;73.388;2023-09-07T09:45:47;8.15;;;3.45;;
50291;SDS011;36190;54.980;73.388;2023-09-07T09:48:16;7.18;;;2.85;;
50291;SDS011;36190;54.980;73.388;2023-09-07T09:50:46;7.57;;;2.92;;
50291;SDS011;36190;54.980;73.388;2023-09-07T09:53:14;10.13;;;3.60;;
50291;SDS011;36190;54.980;73.388;2023-09-07T09:55:44;7.15;;;2.80;;
50291;SDS011;36190;54.980;73.388;2023-09-07T09:58:14;7.65;;;2.97;;
50291;SDS011;36190;54.980;73.388;2023-09-07T10:00:42;7.63;;;3.30;;
50291;SDS011;36190;54.980;73.388;2023-09-07T10:03:12;11.13;;;4.03;;
50291;SDS011;36190;54.980;73.388;2023-09-07T10:05:44;8.77;;;3.30;;
50291;SDS011;36190;54.980;73.388;2023-09-07T10:08:12;10.80;;;3.53;;
50291;SDS011;36190;54.980;73.388;2023-09-07T10:10:42;10.25;;;3.53;;
50291;SDS011;36190;54.980;73.388;2023-09-07T10:13:13;6.70;;;2.75;;
50291;SDS011;36190;54.980;73.388;2023-09-07T10:15:43;7.25;;;3.30;;
50291;SDS011;36190;54.980;73.388;2023-09-07T10:18:12;6.00;;;2.80;;
50291;SDS011;36190;54.980;73.388;2023-09-07T10:20:48;6.93;;;2.88;;
50291;SDS011;36190;54.980;73.388;2023-09-07T10:23:15;7.53;;;3.08;;
50291;SDS011;36190;54.980;73.388;2023-09-07T10:25:47;5.88;;;2.80;;
50291;SDS011;36190;54.980;73.388;2023-09-07T10:28:23;6.90;;;2.80;;
50291;SDS011;36190;54.980;73.388;2023-09-07T10:31:01;5.38;;;2.65;;
50291;SDS011;36190;54.980;73.388;2023-09-07T10:33:30;6.45;;;2.88;;
50291;SDS011;36190;54.980;73.388;2023-09-07T10:35:58;9.88;;;3.45;;
50291;SDS011;36190;54.980;73.388;2023-09-07T10:38:26;13.88;;;3.47;;
50291;SDS011;36190;54.980;73.388;2023-09-07T10:40:54;7.95;;;3.20;;
50291;SDS011;36190;54.980;73.388;2023-09-07T10:43:26;13.07;;;5.72;;
50291;SDS011;36190;54.980;73.388;2023-09-07T10:45:55;9.95;;;3.45;;
50291;SDS011;36190;54.980;73.388;2023-09-07T10:48:22;9.05;;;3.70;;
50291;SDS011;36190;54.980;73.388;2023-09-07T10:50:51;8.23;;;3.22;;
50291;SDS011;36190;54.980;73.388;2023-09-07T10:53:25;10.25;;;3.03;;
50291;SDS011;36190;54.980;73.388;2023-09-07T10:55:54;7.15;;;3.10;;
50291;SDS011;36190;54.980;73.388;2023-09-07T10:58:26;7.90;;;2.92;;
50291;SDS011;36190;54.980;73.388;2023-09-07T11:00:54;8.73;;;3.03;;
50291;SDS011;36190;54.980;73.388;2023-09-07T11:03:22;8.82;;;3.35;;
50291;SDS011;36190;54.980;73.388;2023-09-07T11:05:51;13.00;;;2.95;;
50291;SDS011;36190;54.980;73.388;2023-09-07T11:08:21;11.15;;;2.88;;
50291;SDS011;36190;54.980;73.388;2023-09-07T11:10:49;8.77;;;3.10;;
50291;SDS011;36190;54.980;73.388;2023-09-07T11:13:18;10.63;;;2.90;;
50291;SDS011;36190;54.980;73.388;2023-09-07T11:15:47;9.02;;;3.35;;
50291;SDS011;36190;54.980;73.388;2023-09-07T11:18:18;10.98;;;3.92;;
50291;SDS011;36190;54.980;73.388;2023-09-07T11:20:47;8.60;;;3.10;;
50291;SDS011;36190;54.980;73.388;2023-09-07T11:23:16;7.45;;;3.15;;
50291;SDS011;36190;54.980;73.388;2023-09-07T11:25:44;10.32;;;3.78;;
50291;SDS011;36190;54.980;73.388;2023-09-07T11:28:15;7.75;;;3.13;;
50291;SDS011;36190;54.980;73.388;2023-09-07T11:30:51;6.82;;;3.00;;
50291;SDS011;36190;54.980;73.388;2023-09-07T11:33:20;8.00;;;3.35;;
50291;SDS011;36190;54.980;73.388;2023-09-07T11:35:49;9.68;;;3.50;;
50291;SDS011;36190;54.980;73.388;2023-09-07T11:38:17;13.85;;;4.10;;
50291;SDS011;36190;54.980;73.388;2023-09-07T11:40:45;14.95;;;3.90;;
50291;SDS011;36190;54.980;73.388;2023-09-07T11:43:13;10.48;;;3.70;;
50291;SDS011;36190;54.980;73.388;2023-09-07T11:45:41;14.77;;;4.32;;
50291;SDS011;36190;54.980;73.388;2023-09-07T11:48:11;14.77;;;3.97;;
50291;SDS011;36190;54.980;73.388;2023-09-07T11:50:39;12.07;;;4.10;;
50291;SDS011;36190;54.980;73.388;2023-09-07T11:53:06;17.23;;;4.75;;
50291;SDS011;36190;54.980;73.388;2023-09-07T11:55:34;11.93;;;4.13;;
50291;SDS011;36190;54.980;73.388;2023-09-07T11:58:03;12.43;;;4.25;;
50291;SDS011;36190;54.980;73.388;2023-09-07T12:00:31;10.45;;;3.80;;
50291;SDS011;36190;54.980;73.388;2023-09-07T12:02:58;12.38;;;3.95;;
50291;SDS011;36190;54.980;73.388;2023-09-07T12:05:27;14.15;;;3.95;;
50291;SDS011;36190;54.980;73.388;2023-09-07T12:07:55;17.08;;;4.95;;
50291;SDS011;36190;54.980;73.388;2023-09-07T12:10:23;12.00;;;3.83;;
50291;SDS011;36190;54.980;73.388;2023-09-07T12:12:50;11.35;;;4.05;;
50291;SDS011;36190;54.980;73.388;2023-09-07T12:15:18;11.15;;;3.58;;
50291;SDS011;36190;54.980;73.388;2023-09-07T12:17:45;9.02;;;3.35;;
50291;SDS011;36190;54.980;73.388;2023-09-07T12:20:13;11.05;;;4.10;;
50291;SDS011;36190;54.980;73.388;2023-09-07T12:22:43;10.38;;;3.90;;
50291;SDS011;36190;54.980;73.388;2023-09-07T12:25:10;10.23;;;4.05;;
50291;SDS011;36190;54.980;73.388;2023-09-07T12:27:38;9.75;;;4.43;;
50291;SDS011;36190;54.980;73.388;2023-09-07T12:30:07;10.13;;;4.00;;
50291;SDS011;36190;54.980;73.388;2023-09-07T12:32:38;14.15;;;4.57;;
50291;SDS011;36190;54.980;73.388;2023-09-07T12:35:06;10.25;;;3.45;;
50291;SDS011;36190;54.980;73.388;2023-09-07T12:37:35;10.65;;;3.50;;
50291;SDS011;36190;54.980;73.388;2023-09-07T12:40:04;7.82;;;3.40;;
50291;SDS011;36190;54.980;73.388;2023-09-07T12:42:37;11.82;;;3.75;;
50291;SDS011;36190;54.980;73.388;2023-09-07T12:45:06;9.38;;;3.50;;
50291;SDS011;36190;54.980;73.388;2023-09-07T12:47:35;8.77;;;4.07;;
50291;SDS011;36190;54.980;73.388;2023-09-07T12:50:04;14.48;;;4.88;;
50291;SDS011;36190;54.980;73.388;2023-09-07T12:52:32;11.48;;;4.70;;
50291;SDS011;36190;54.980;73.388;2023-09-07T12:55:04;13.38;;;5.68;;
50291;SDS011;36190;54.980;73.388;2023-09-07T12:57:33;12.70;;;6.65;;
50291;SDS011;36190;54.980;73.388;2023-09-07T13:00:01;18.30;;;6.38;;
50291;SDS011;36190;54.980;73.388;2023-09-07T13:02:29;16.80;;;6.53;;
50291;SDS011;36190;54.980;73.388;2023-09-07T13:04:56;16.80;;;7.78;;
50291;SDS011;36190;54.980;73.388;2023-09-07T13:07:24;15.25;;;7.32;;
50291;SDS011;36190;54.980;73.388;2023-09-07T13:09:51;20.92;;;9.23;;
50291;SDS011;36190;54.980;73.388;2023-09-07T13:12:21;18.88;;;9.57;;
50291;SDS011;36190;54.980;73.388;2023-09-07T13:14:49;19.70;;;9.57;;
50291;SDS011;36190;54.980;73.388;2023-09-07T13:17:16;18.30;;;9.60;;
50291;SDS011;36190;54.980;73.388;2023-09-07T13:19:44;21.40;;;9.10;;
50291;SDS011;36190;54.980;73.388;2023-09-07T13:22:16;15.98;;;9.35;;
50291;SDS011;36190;54.980;73.388;2023-09-07T13:24:44;18.35;;;9.90;;
50291;SDS011;36190;54.980;73.388;2023-09-07T13:27:11;17.40;;;10.18;;
50291;SDS011;36190;54.980;73.388;2023-09-07T13:29:40;17.30;;;8.15;;
50291;SDS011;36190;54.980;73.388;2023-09-07T13:32:08;15.98;;;7.78;;
50291;SDS011;36190;54.980;73.388;2023-09-07T13:34:35;19.65;;;9.23;;
50291;SDS011;36190;54.980;73.388;2023-09-07T13:37:03;17.05;;;8.13;;
50291;SDS011;36190;54.980;73.388;2023-09-07T13:39:30;14.20;;;7.65;;
50291;SDS011;36190;54.980;73.388;2023-09-07T13:41:58;17.55;;;7.93;;
50291;SDS011;36190;54.980;73.388;2023-09-07T13:44:25;23.15;;;8.95;;
50291;SDS011;36190;54.980;73.388;2023-09-07T13:46:54;20.40;;;8.25;;
50291;SDS011;36190;54.980;73.388;2023-09-07T13:49:22;19.02;;;7.95;;
50291;SDS011;36190;54.980;73.388;2023-09-07T13:51:50;25.75;;;9.20;;
50291;SDS011;36190;54.980;73.388;2023-09-07T13:54:18;23.27;;;8.77;;
50291;SDS011;36190;54.980;73.388;2023-09-07T13:56:45;22.65;;;9.93;;
50291;SDS011;36190;54.980;73.388;2023-09-07T13:59:13;29.73;;;12.20;;
50291;SDS011;36190;54.980;73.388;2023-09-07T14:01:40;34.83;;;12.52;;
50291;SDS011;36190;54.980;73.388;2023-09-07T14:04:09;37.00;;;14.82;;
50291;SDS011;36190;54.980;73.388;2023-09-07T14:06:37;34.78;;;14.02;;
50291;SDS011;36190;54.980;73.388;2023-09-07T14:09:05;43.33;;;13.30;;
50291;SDS011;36190;54.980;73.388;2023-09-07T14:11:32;28.65;;;13.40;;
50291;SDS011;36190;54.980;73.388;2023-09-07T14:14:00;29.48;;;13.77;;
50291;SDS011;36190;54.980;73.388;2023-09-07T14:16:27;32.72;;;15.35;;
50291;SDS011;36190;54.980;73.388;2023-09-07T14:18:55;29.48;;;14.95;;
50291;SDS011;36190;54.980;73.388;2023-09-07T14:21:24;36.50;;;15.90;;
50291;SDS011;36190;54.980;73.388;2023-09-07T14:23:51;29.08;;;17.20;;
50291;SDS011;36190;54.980;73.388;2023-09-07T14:26:19;28.50;;;16.02;;
50291;SDS011;36190;54.980;73.388;2023-09-07T14:28:46;32.17;;;15.63;;
50291;SDS011;36190;54.980;73.388;2023-09-07T14:31:14;38.33;;;15.88;;